Time;durP1;ratioP1;P1;durP2;ratioP2;P2;SDS_P1;SDS_P2;PMS_P1;PMS_P2;Temp;Humidity;BMP_temperature;BMP_pressure;BME280_temperature;BME280_humidity;BME280_pressure;Samples;Min_cycle;Max_cycle;Signal;HPM_P1;HPM_P2
2023/06/13 00:02:07;;;;;;;9.20;3.42;;;15.00;65.30;;;;;;4779708;29;20067;-76
2023/06/13 00:04:33;;;;;;;6.07;2.97;;;15.00;65.40;;;;;;4786543;29;20043;-77
2023/06/13 00:06:59;;;;;;;6.22;3.70;;;15.00;65.50;;;;;;4780367;29;20047;-76
2023/06/13 00:09:26;;;;;;;5.70;3.05;;;15.00;65.70;;;;;;4785648;29;20062;-75
2023/06/13 00:11:52;;;;;;;6.90;3.28;;;14.90;65.70;;;;;;4778336;29;20063;-74
2023/06/13 00:14:20;;;;;;;5.55;3.50;;;14.90;65.90;;;;;;4784281;29;20157;-74
2023/06/13 00:16:47;;;;;;;6.88;3.83;;;14.80;66.10;;;;;;4764386;30;20142;-75
2023/06/13 00:19:13;;;;;;;18.42;3.72;;;14.90;66.40;;;;;;4770622;29;20115;-78
2023/06/13 00:21:41;;;;;;;6.78;2.92;;;14.80;66.50;;;;;;4769995;29;20710;-76
2023/06/13 00:24:07;;;;;;;5.70;2.80;;;16.50;67.50;;;;;;4771067;29;20479;-74
2023/06/13 00:26:33;;;;;;;6.80;3.53;;;14.70;67.00;;;;;;4766909;29;20423;-74
2023/06/13 00:28:59;;;;;;;11.60;5.15;;;14.70;66.80;;;;;;4770111;29;20055;-77
2023/06/13 00:31:29;;;;;;;10.27;3.47;;;14.70;67.00;;;;;;4779018;29;20075;-75
2023/06/13 00:33:59;;;;;;;5.07;3.28;;;14.70;67.10;;;;;;4788614;29;20135;-75
2023/06/13 00:36:27;;;;;;;8.40;3.53;;;14.60;67.10;;;;;;4778971;29;20059;-76
2023/06/13 00:38:56;;;;;;;7.32;2.97;;;14.60;67.20;;;;;;4774281;29;20074;-73
2023/06/13 00:41:22;;;;;;;5.55;3.47;;;14.50;67.10;;;;;;4773851;29;20498;-75
2023/06/13 00:43:48;;;;;;;9.15;3.42;;;14.60;67.00;;;;;;4787054;29;20595;-76
2023/06/13 00:46:24;;;;;;;7.72;3.20;;;14.60;66.90;;;;;;4760681;29;20272;-76
2023/06/13 00:48:50;;;;;;;8.45;3.55;;;14.60;66.90;;;;;;4776365;29;20054;-73
2023/06/13 00:51:16;;;;;;;8.30;3.78;;;14.60;66.80;;;;;;4784741;29;20057;-75
2023/06/13 00:53:46;;;;;;;6.78;3.30;;;14.60;66.70;;;;;;4767594;30;20095;-75
2023/06/13 00:56:11;;;;;;;9.02;3.42;;;14.60;66.70;;;;;;4779580;29;20581;-77
2023/06/13 00:58:38;;;;;;;11.80;4.38;;;14.60;66.70;;;;;;4781393;29;20051;-75
2023/06/13 01:01:04;;;;;;;9.57;3.60;;;14.70;66.70;;;;;;4778827;29;20057;-73
2023/06/13 01:03:35;;;;;;;11.23;3.55;;;14.70;66.50;;;;;;4763945;30;20082;-75
2023/06/13 01:06:01;;;;;;;13.50;3.95;;;14.70;66.60;;;;;;4784491;29;20058;-76
2023/06/13 01:08:28;;;;;;;13.05;3.95;;;14.70;66.60;;;;;;4773160;29;20055;-74
2023/06/13 01:11:04;;;;;;;9.45;3.55;;;14.60;66.50;;;;;;4772156;29;20062;-74
2023/06/13 01:13:41;;;;;;;10.75;4.45;;;14.60;66.50;;;;;;4785466;29;20055;-73
2023/06/13 01:16:21;;;;;;;10.70;3.70;;;14.60;66.40;;;;;;4771236;29;20921;-74
2023/06/13 01:18:50;;;;;;;8.55;3.67;;;14.60;66.40;;;;;;4786258;29;20061;-73
2023/06/13 01:21:18;;;;;;;10.23;4.07;;;14.70;66.30;;;;;;4767550;29;20813;-73
2023/06/13 01:24:02;;;;;;;15.35;3.78;;;14.70;66.10;;;;;;4779066;29;20059;-75
2023/06/13 01:26:54;;;;;;;15.90;4.00;;;14.70;66.00;;;;;;4779506;29;20096;-77
2023/06/13 01:29:21;;;;;;;9.45;3.95;;;17.40;67.70;;;;;;4779498;29;20522;-76
2023/06/13 01:31:55;;;;;;;10.05;4.05;;;14.80;66.00;;;;;;4789397;29;20066;-74
2023/06/13 01:34:21;;;;;;;9.60;4.63;;;14.80;66.20;;;;;;4771677;29;20513;-76
2023/06/13 01:36:48;;;;;;;9.80;4.55;;;14.80;66.10;;;;;;4785245;29;20524;-78
2023/06/13 01:39:14;;;;;;;6.68;3.33;;;14.80;66.10;;;;;;4785486;29;20066;-76
2023/06/13 01:41:40;;;;;;;4.78;3.55;;;14.80;66.20;;;;;;4780895;29;20047;-77
2023/06/13 01:44:06;;;;;;;6.30;3.88;;;14.90;66.10;;;;;;4760467;29;20062;-75
2023/06/13 01:46:46;;;;;;;7.03;3.47;;;14.80;66.00;;;;;;4763970;29;20108;-75
2023/06/13 01:49:27;;;;;;;6.28;4.00;;;14.80;66.20;;;;;;4779938;29;20059;-76
2023/06/13 01:52:13;;;;;;;7.20;4.43;;;12.60;65.10;;;;;;4782791;29;20059;-76
2023/06/13 01:54:49;;;;;;;8.07;3.75;;;14.10;66.30;;;;;;4737492;29;20109;-76
2023/06/13 01:57:20;;;;;;;6.07;3.72;;;14.70;66.40;;;;;;4778654;29;20055;-75
2023/06/13 01:59:52;;;;;;;5.85;3.60;;;14.70;66.50;;;;;;4773381;29;20055;-75
2023/06/13 02:02:19;;;;;;;6.72;3.83;;;14.70;66.60;;;;;;4782676;29;20146;-75
2023/06/13 02:04:45;;;;;;;7.13;3.80;;;14.70;66.60;;;;;;4780445;29;20059;-73
2023/06/13 02:07:10;;;;;;;6.22;3.88;;;14.60;66.70;;;;;;4787869;29;20580;-77
2023/06/13 02:09:37;;;;;;;8.48;3.83;;;14.60;67.20;;;;;;4771682;29;20066;-77
2023/06/13 02:12:03;;;;;;;8.57;4.13;;;14.50;67.30;;;;;;4787970;29;20100;-75
2023/06/13 02:14:32;;;;;;;5.57;3.67;;;14.50;67.20;;;;;;4789513;29;20081;-77
2023/06/13 02:16:59;;;;;;;9.02;4.25;;;14.40;67.40;;;;;;4783851;29;20059;-79
2023/06/13 02:19:25;;;;;;;8.20;4.07;;;14.30;67.60;;;;;;4777706;29;20805;-76
2023/06/13 02:21:51;;;;;;;8.63;4.20;;;14.30;67.90;;;;;;4780729;29;20051;-75
2023/06/13 02:24:18;;;;;;;6.70;3.85;;;14.20;68.20;;;;;;4778577;29;20545;-75
2023/06/13 02:26:45;;;;;;;6.70;3.75;;;14.10;68.60;;;;;;4787553;29;20657;-73
2023/06/13 02:29:12;;;;;;;5.47;3.75;;;14.00;69.30;;;;;;4790132;29;20058;-75
2023/06/13 02:31:38;;;;;;;6.68;3.92;;;13.90;69.80;;;;;;4771807;29;20074;-75
2023/06/13 02:34:04;;;;;;;8.48;3.97;;;13.80;70.40;;;;;;4771561;29;20058;-76
2023/06/13 02:36:30;;;;;;;8.35;3.80;;;13.80;70.30;;;;;;4783637;29;20058;-76
2023/06/13 02:38:56;;;;;;;7.13;3.75;;;13.70;70.30;;;;;;4789086;29;20054;-75
2023/06/13 02:41:22;;;;;;;6.30;3.30;;;13.70;70.40;;;;;;4779514;29;20059;-75
2023/06/13 02:43:47;;;;;;;8.50;3.40;;;13.70;70.40;;;;;;4788535;29;20050;-74
2023/06/13 02:46:15;;;;;;;6.55;3.63;;;13.70;70.30;;;;;;4771267;29;20051;-75
2023/06/13 02:48:41;;;;;;;10.63;4.05;;;13.60;70.10;;;;;;4781424;29;20061;-75
2023/06/13 02:51:09;;;;;;;8.57;3.60;;;13.60;70.00;;;;;;4768861;29;20063;-74
2023/06/13 02:53:35;;;;;;;8.13;4.05;;;13.60;69.90;;;;;;4781886;29;20048;-73
2023/06/13 02:56:01;;;;;;;7.80;4.43;;;13.60;70.00;;;;;;4774606;29;20059;-75
2023/06/13 02:58:27;;;;;;;8.57;3.80;;;13.60;70.10;;;;;;4789877;29;20081;-75
2023/06/13 03:00:53;;;;;;;9.55;4.32;;;13.50;70.10;;;;;;4785732;29;20861;-75
2023/06/13 03:03:23;;;;;;;11.02;4.55;;;13.50;70.60;;;;;;4787296;29;20054;-74
2023/06/13 03:05:56;;;;;;;9.15;3.88;;;13.50;70.30;;;;;;4784560;29;20070;-75
2023/06/13 03:08:26;;;;;;;8.13;3.85;;;13.50;70.60;;;;;;4783878;29;20087;-76
2023/06/13 03:10:53;;;;;;;13.05;4.07;;;13.40;71.00;;;;;;4773068;29;20098;-75
2023/06/13 03:13:19;;;;;;;10.38;4.20;;;13.30;71.30;;;;;;4767764;30;20517;-76
2023/06/13 03:15:47;;;;;;;9.13;4.38;;;13.20;71.70;;;;;;4786195;29;20402;-75
2023/06/13 03:18:14;;;;;;;5.90;3.97;;;13.20;71.80;;;;;;4780626;29;20065;-75
2023/06/13 03:20:45;;;;;;;5.50;3.78;;;13.20;71.60;;;;;;4772792;29;20141;-74
2023/06/13 03:23:12;;;;;;;7.35;3.63;;;13.20;71.40;;;;;;4774338;29;20063;-76
2023/06/13 03:25:42;;;;;;;10.93;4.55;;;13.90;71.70;;;;;;4780053;29;20063;-74
2023/06/13 03:28:09;;;;;;;9.80;4.28;;;13.30;71.30;;;;;;4782403;29;20982;-75
2023/06/13 03:30:35;;;;;;;8.65;4.15;;;13.30;71.20;;;;;;4787816;29;20399;-75
2023/06/13 03:33:01;;;;;;;7.55;3.75;;;13.30;71.20;;;;;;4796040;29;20058;-74
2023/06/13 03:35:28;;;;;;;7.43;4.32;;;13.30;71.40;;;;;;4786346;29;20134;-75
2023/06/13 03:37:53;;;;;;;7.07;3.75;;;13.30;71.60;;;;;;4767535;29;20051;-74
2023/06/13 03:40:19;;;;;;;8.05;4.43;;;13.30;72.00;;;;;;4770583;29;20063;-75
2023/06/13 03:42:45;;;;;;;7.45;4.40;;;13.20;72.20;;;;;;4785317;29;20771;-74
2023/06/13 03:45:11;;;;;;;8.18;4.13;;;13.20;72.40;;;;;;4785679;29;20082;-75
2023/06/13 03:47:38;;;;;;;7.10;3.97;;;13.20;72.50;;;;;;4779358;29;20134;-75
2023/06/13 03:50:04;;;;;;;7.70;3.95;;;13.10;72.70;;;;;;4790042;29;20055;-75
2023/06/13 03:52:29;;;;;;;8.57;4.13;;;13.10;72.90;;;;;;4789765;29;20078;-75
2023/06/13 03:54:55;;;;;;;8.10;5.18;;;13.10;73.30;;;;;;4784436;29;20051;-75
2023/06/13 03:57:21;;;;;;;8.70;4.50;;;13.10;73.60;;;;;;4778467;29;20062;-75
2023/06/13 03:59:47;;;;;;;6.50;4.43;;;13.10;74.10;;;;;;4787236;29;20208;-75
2023/06/13 04:02:13;;;;;;;6.90;4.45;;;13.10;75.20;;;;;;4770687;29;20406;-75
2023/06/13 04:04:46;;;;;;;8.32;4.65;;;13.10;75.10;;;;;;4779075;29;20062;-75
2023/06/13 04:07:12;;;;;;;6.60;4.20;;;13.10;75.20;;;;;;4783556;29;20592;-76
2023/06/13 04:09:38;;;;;;;8.50;4.57;;;13.10;75.20;;;;;;4786566;29;20058;-75
2023/06/13 04:12:05;;;;;;;7.57;4.22;;;13.10;75.20;;;;;;4770757;29;20054;-74
2023/06/13 04:14:30;;;;;;;7.90;4.28;;;13.20;75.30;;;;;;4784102;29;20588;-75
2023/06/13 04:16:59;;;;;;;7.50;4.30;;;13.30;75.60;;;;;;4780436;29;20058;-75
2023/06/13 04:19:25;;;;;;;5.55;3.80;;;13.60;75.80;;;;;;4774809;29;20047;-75
2023/06/13 04:21:54;;;;;;;7.75;4.78;;;14.00;75.80;;;;;;4785146;29;20147;-76
2023/06/13 04:24:21;;;;;;;5.03;3.58;;;14.60;75.50;;;;;;4788359;29;20490;-75
2023/06/13 04:26:47;;;;;;;8.70;4.20;;;15.30;74.60;;;;;;4789395;29;20062;-75
2023/06/13 04:29:16;;;;;;;11.05;4.03;;;15.90;73.20;;;;;;4772032;29;20129;-75
2023/06/13 04:31:43;;;;;;;5.97;3.72;;;16.50;71.80;;;;;;4783410;29;20063;-75
2023/06/13 04:34:11;;;;;;;8.50;3.70;;;17.10;70.60;;;;;;4795395;29;20067;-76
2023/06/13 04:36:38;;;;;;;6.88;4.05;;;17.50;68.80;;;;;;4785401;29;20047;-75
2023/06/13 04:39:08;;;;;;;9.80;3.85;;;18.00;67.90;;;;;;4783841;29;20774;-76
2023/06/13 04:41:35;;;;;;;11.18;5.20;;;18.40;66.70;;;;;;4779370;29;20057;-74
2023/06/13 04:44:03;;;;;;;10.07;3.88;;;18.80;66.80;;;;;;4780042;29;20098;-76
2023/06/13 04:46:32;;;;;;;7.03;3.90;;;19.00;64.80;;;;;;4766383;29;20051;-77
2023/06/13 04:48:58;;;;;;;6.18;3.72;;;19.00;63.60;;;;;;4789283;29;20134;-76
2023/06/13 04:51:27;;;;;;;6.57;4.38;;;18.60;63.40;;;;;;4786581;29;20133;-75
2023/06/13 04:53:57;;;;;;;7.28;3.88;;;18.60;63.30;;;;;;4776092;29;20058;-74
2023/06/13 04:56:24;;;;;;;7.32;4.43;;;18.40;63.60;;;;;;4785318;29;20054;-75
2023/06/13 04:58:52;;;;;;;6.53;3.80;;;18.10;64.10;;;;;;4764931;29;21021;-75
2023/06/13 05:01:20;;;;;;;6.75;4.53;;;18.00;64.50;;;;;;4785400;29;20055;-75
2023/06/13 05:03:49;;;;;;;6.40;3.97;;;17.80;64.30;;;;;;4778052;29;20131;-73
2023/06/13 05:06:15;;;;;;;8.90;4.07;;;17.80;64.70;;;;;;4771233;29;20054;-75
2023/06/13 05:08:41;;;;;;;6.22;3.95;;;20.10;66.20;;;;;;4777096;29;20145;-75
2023/06/13 05:11:07;;;;;;;6.43;3.88;;;18.10;65.50;;;;;;4773621;29;20146;-75
2023/06/13 05:13:32;;;;;;;6.05;4.15;;;18.30;65.30;;;;;;4765992;29;20059;-75
2023/06/13 05:15:58;;;;;;;8.10;3.80;;;18.50;65.10;;;;;;4773937;29;20062;-74
2023/06/13 05:18:29;;;;;;;9.38;4.13;;;18.60;64.50;;;;;;4787198;29;20089;-73
2023/06/13 05:20:58;;;;;;;7.82;4.72;;;18.60;63.90;;;;;;4786954;29;20778;-75
2023/06/13 05:23:25;;;;;;;7.60;4.28;;;18.60;64.30;;;;;;4767882;29;20062;-76
2023/06/13 05:25:51;;;;;;;5.78;4.40;;;18.70;63.80;;;;;;4786149;29;20054;-74
2023/06/13 05:28:17;;;;;;;5.32;3.70;;;18.70;63.40;;;;;;4779701;29;20046;-75
2023/06/13 05:30:43;;;;;;;9.00;4.32;;;18.70;63.70;;;;;;4766726;29;20159;-75
2023/06/13 05:33:10;;;;;;;5.65;3.85;;;18.60;63.00;;;;;;4757098;29;20141;-76
2023/06/13 05:35:36;;;;;;;6.07;4.13;;;18.60;62.60;;;;;;4780122;29;20895;-75
2023/06/13 05:38:02;;;;;;;8.07;3.97;;;18.60;62.80;;;;;;4778679;29;20051;-76
2023/06/13 05:40:27;;;;;;;10.55;4.22;;;19.60;63.30;;;;;;4782084;29;20584;-78
2023/06/13 05:42:53;;;;;;;7.50;4.20;;;19.00;62.20;;;;;;4788416;29;20147;-77
2023/06/13 05:45:21;;;;;;;6.43;3.83;;;19.70;61.20;;;;;;4774575;29;20550;-78
2023/06/13 05:47:46;;;;;;;9.05;3.60;;;20.90;59.10;;;;;;4786321;29;20085;-75
2023/06/13 05:50:13;;;;;;;8.98;3.80;;;21.70;57.90;;;;;;4789774;29;20548;-75
2023/06/13 05:52:39;;;;;;;6.85;3.03;;;22.50;56.40;;;;;;4781923;29;20100;-76
2023/06/13 05:55:08;;;;;;;6.55;3.40;;;23.20;54.00;;;;;;4775203;29;20572;-76
2023/06/13 05:57:41;;;;;;;8.18;3.17;;;24.40;52.10;;;;;;4752924;30;20077;-75
2023/06/13 06:00:12;;;;;;;8.40;3.25;;;25.20;50.00;;;;;;4776146;29;20752;-74
2023/06/13 06:02:44;;;;;;;7.38;3.38;;;25.40;48.30;;;;;;4750950;30;20055;-77
2023/06/13 06:05:11;;;;;;;7.60;3.10;;;27.30;46.30;;;;;;4759137;29;20185;-82
2023/06/13 06:07:38;;;;;;;8.00;2.90;;;28.10;45.30;;;;;;4754760;29;20060;-80
2023/06/13 06:10:05;;;;;;;5.30;2.35;;;30.80;45.20;;;;;;4770646;29;20201;-77
2023/06/13 06:12:35;;;;;;;7.47;2.90;;;29.50;42.40;;;;;;4755886;29;20054;-79
2023/06/13 06:15:01;;;;;;;4.78;2.58;;;30.10;41.30;;;;;;4769749;29;20079;-77
2023/06/13 06:17:27;;;;;;;4.78;2.35;;;30.50;40.30;;;;;;4770564;29;20446;-78
2023/06/13 06:19:53;;;;;;;5.40;2.00;;;31.10;39.90;;;;;;4772077;29;20864;-78
2023/06/13 06:22:20;;;;;;;9.35;2.90;;;31.70;39.70;;;;;;4766966;29;20480;-77
2023/06/13 06:24:45;;;;;;;4.80;1.80;;;32.20;38.50;;;;;;4764550;29;20133;-79
2023/06/13 06:27:12;;;;;;;5.47;2.10;;;32.60;38.00;;;;;;4766848;29;20060;-77
2023/06/13 06:29:39;;;;;;;3.85;2.15;;;32.90;37.50;;;;;;4752848;29;20051;-77
2023/06/13 06:32:06;;;;;;;6.70;2.50;;;33.20;37.10;;;;;;4755329;30;20067;-76
2023/06/13 06:34:32;;;;;;;3.95;2.00;;;33.60;36.80;;;;;;4765919;29;20055;-74
2023/06/13 06:36:58;;;;;;;5.35;2.30;;;34.20;36.60;;;;;;4746802;29;20055;-75
2023/06/13 06:39:24;;;;;;;4.80;2.28;;;34.50;36.10;;;;;;4762024;29;20066;-76
2023/06/13 06:41:50;;;;;;;3.67;1.52;;;34.80;35.90;;;;;;4769104;29;20061;-75
2023/06/13 06:44:15;;;;;;;5.40;1.60;;;35.10;35.40;;;;;;4773166;29;20066;-79
2023/06/13 06:46:41;;;;;;;3.85;1.50;;;35.40;35.30;;;;;;4787377;29;20086;-74
2023/06/13 06:49:07;;;;;;;3.88;1.63;;;35.90;35.20;;;;;;4773286;29;20051;-76
2023/06/13 06:51:35;;;;;;;4.32;1.60;;;36.10;34.80;;;;;;4777229;29;20054;-73
2023/06/13 06:54:00;;;;;;;5.43;1.90;;;36.30;33.70;;;;;;4770806;29;20086;-73
2023/06/13 06:56:27;;;;;;;4.28;1.60;;;36.40;33.40;;;;;;4773548;29;20513;-77
2023/06/13 06:58:53;;;;;;;7.03;1.80;;;36.60;33.40;;;;;;4778081;29;20414;-75
2023/06/13 07:01:19;;;;;;;6.30;2.05;;;36.90;33.30;;;;;;4788205;29;20061;-75
2023/06/13 07:03:45;;;;;;;4.53;1.88;;;37.00;33.20;;;;;;4783540;29;20055;-75
2023/06/13 07:06:14;;;;;;;6.30;1.73;;;37.20;33.10;;;;;;4787844;29;20622;-74
2023/06/13 07:08:39;;;;;;;5.10;1.80;;;37.60;32.70;;;;;;4766188;30;20225;-75
2023/06/13 07:11:05;;;;;;;6.47;1.75;;;37.40;32.00;;;;;;4759508;30;20159;-77
2023/06/13 07:13:32;;;;;;;6.45;1.80;;;37.30;32.20;;;;;;4776951;29;20403;-80
2023/06/13 07:15:59;;;;;;;4.78;1.50;;;37.50;33.00;;;;;;4786089;29;20055;-76
2023/06/13 07:18:26;;;;;;;5.28;1.90;;;37.60;31.80;;;;;;4766557;29;20112;-80
2023/06/13 07:20:52;;;;;;;3.60;1.30;;;37.80;31.30;;;;;;4771363;29;20583;-76
2023/06/13 07:23:18;;;;;;;3.80;1.52;;;37.80;31.10;;;;;;4767737;29;20063;-76
2023/06/13 07:25:43;;;;;;;7.63;1.55;;;38.20;32.20;;;;;;4785601;29;20107;-82
2023/06/13 07:28:10;;;;;;;3.35;1.35;;;38.40;31.50;;;;;;4766205;29;20530;-73
2023/06/13 07:30:36;;;;;;;4.57;1.67;;;38.70;31.10;;;;;;4772214;29;20069;-75
2023/06/13 07:33:02;;;;;;;3.35;1.45;;;39.10;30.70;;;;;;4782622;29;20059;-78
2023/06/13 07:35:29;;;;;;;6.63;1.58;;;38.90;30.80;;;;;;4797081;29;20069;-73
2023/06/13 07:37:55;;;;;;;5.25;1.40;;;39.00;30.50;;;;;;4777589;29;20090;-76
2023/06/13 07:40:21;;;;;;;3.95;1.55;;;39.00;31.10;;;;;;4778547;29;20086;-78
2023/06/13 07:42:51;;;;;;;5.82;2.00;;;38.70;30.10;;;;;;4775228;29;20333;-75
2023/06/13 07:45:17;;;;;;;3.60;1.80;;;38.70;30.00;;;;;;4790958;29;20162;-76
2023/06/13 07:47:43;;;;;;;2.95;1.48;;;38.70;30.00;;;;;;4785809;29;20122;-79
2023/06/13 07:50:09;;;;;;;6.03;1.50;;;38.60;30.00;;;;;;4772903;29;20169;-79
2023/06/13 07:52:35;;;;;;;7.03;1.58;;;38.50;30.00;;;;;;4771220;29;20051;-75
2023/06/13 07:55:01;;;;;;;4.10;1.30;;;38.70;30.50;;;;;;4792029;29;20054;-80
2023/06/13 07:57:27;;;;;;;3.20;1.23;;;38.90;29.60;;;;;;4790492;29;20055;-78
2023/06/13 07:59:55;;;;;;;6.30;1.48;;;39.00;29.50;;;;;;4788592;29;20063;-78
2023/06/13 08:02:21;;;;;;;6.28;1.80;;;39.20;29.10;;;;;;4782159;29;20151;-74
2023/06/13 08:04:47;;;;;;;5.25;1.58;;;39.50;29.10;;;;;;4770945;29;20055;-76
2023/06/13 08:07:13;;;;;;;4.13;1.40;;;39.80;29.00;;;;;;4785196;29;20055;-80
2023/06/13 08:09:39;;;;;;;1.95;1.25;;;39.90;29.00;;;;;;4782006;29;20090;-75
2023/06/13 08:12:06;;;;;;;6.35;1.00;;;39.80;28.00;;;;;;4787318;29;20130;-79
2023/06/13 08:14:32;;;;;;;5.60;1.48;;;39.70;28.10;;;;;;4772134;29;20064;-75
2023/06/13 08:16:57;;;;;;;3.13;1.77;;;39.20;28.30;;;;;;4776200;29;20055;-73
2023/06/13 08:19:23;;;;;;;3.63;1.20;;;39.20;28.30;;;;;;4784812;29;20066;-75
2023/06/13 08:21:49;;;;;;;4.53;1.33;;;39.40;28.90;;;;;;4781564;29;20086;-77
2023/06/13 08:24:15;;;;;;;5.70;1.48;;;39.90;28.70;;;;;;4787248;29;20505;-74
2023/06/13 08:26:40;;;;;;;3.55;1.13;;;40.00;28.50;;;;;;4782072;29;20096;-75
2023/06/13 08:29:06;;;;;;;3.47;1.10;;;40.00;28.40;;;;;;4784162;29;20501;-72
2023/06/13 08:31:32;;;;;;;4.40;1.40;;;40.20;28.10;;;;;;4792324;29;20073;-73
2023/06/13 08:34:02;;;;;;;3.47;1.02;;;40.30;27.60;;;;;;4787434;29;20063;-77
2023/06/13 08:36:28;;;;;;;5.05;1.40;;;40.40;28.10;;;;;;4791986;29;20058;-76
2023/06/13 08:38:57;;;;;;;3.75;1.38;;;40.40;27.40;;;;;;4789730;29;20382;-75
2023/06/13 08:41:25;;;;;;;3.97;1.55;;;40.30;27.50;;;;;;4774304;29;20053;-75
2023/06/13 08:43:53;;;;;;;4.03;1.38;;;40.50;27.50;;;;;;4772524;29;20116;-77
2023/06/13 08:46:19;;;;;;;2.30;1.15;;;40.30;27.50;;;;;;4787460;29;20058;-76
2023/06/13 08:48:45;;;;;;;3.63;1.15;;;40.20;27.60;;;;;;4787038;29;20119;-78
2023/06/13 08:51:16;;;;;;;3.28;1.55;;;40.00;28.00;;;;;;4786273;29;20073;-73
2023/06/13 08:53:48;;;;;;;5.10;1.30;;;39.90;27.70;;;;;;4775013;29;20062;-80
2023/06/13 08:56:14;;;;;;;3.47;1.27;;;39.70;28.10;;;;;;4785331;29;20081;-75
2023/06/13 08:58:43;;;;;;;3.70;1.25;;;39.50;28.30;;;;;;4786827;29;20055;-76
2023/06/13 09:01:10;;;;;;;3.08;1.27;;;39.30;27.60;;;;;;4792526;29;20119;-79
2023/06/13 09:03:38;;;;;;;3.28;1.17;;;39.20;27.70;;;;;;4791010;29;20306;-79
2023/06/13 09:06:04;;;;;;;1.73;1.08;;;39.10;28.10;;;;;;4790961;29;20050;-79
2023/06/13 09:08:31;;;;;;;5.70;1.30;;;39.20;28.50;;;;;;4789633;29;20091;-77
2023/06/13 09:10:59;;;;;;;3.40;1.10;;;39.50;28.00;;;;;;4775386;29;20472;-74
2023/06/13 09:13:27;;;;;;;5.13;1.65;;;39.50;27.80;;;;;;4770201;29;20076;-79
2023/06/13 09:15:53;;;;;;;4.35;1.33;;;39.40;28.30;;;;;;4773767;29;20060;-79
2023/06/13 09:18:19;;;;;;;4.57;1.80;;;38.90;28.10;;;;;;4773303;29;20524;-76
2023/06/13 09:20:46;;;;;;;3.53;1.48;;;38.90;27.80;;;;;;4763417;29;20073;-76
2023/06/13 09:23:17;;;;;;;6.60;2.08;;;38.80;27.70;;;;;;4775783;29;20870;-76
2023/06/13 09:25:46;;;;;;;7.72;1.65;;;38.80;28.20;;;;;;4771812;29;20090;-81
2023/06/13 09:28:32;;;;;;;5.13;1.40;;;39.00;27.90;;;;;;4776524;29;20119;-77
2023/06/13 09:30:58;;;;;;;2.80;1.35;;;39.00;27.60;;;;;;4774424;29;20468;-76
2023/06/13 09:33:25;;;;;;;4.40;1.50;;;39.00;28.40;;;;;;4787298;29;20513;-76
2023/06/13 09:35:51;;;;;;;5.18;1.38;;;39.10;28.90;;;;;;4786891;29;20360;-76
2023/06/13 09:38:24;;;;;;;3.67;2.22;;;39.30;28.60;;;;;;4782985;29;20060;-73
2023/06/13 09:40:54;;;;;;;4.10;1.23;;;39.60;28.20;;;;;;4779639;29;20054;-76
2023/06/13 09:43:21;;;;;;;5.93;1.80;;;39.70;28.00;;;;;;4776608;29;20085;-79
2023/06/13 09:45:49;;;;;;;5.00;1.40;;;39.50;28.20;;;;;;4779052;29;20047;-77
2023/06/13 09:48:16;;;;;;;4.70;1.48;;;39.30;28.30;;;;;;4771733;29;20060;-80
2023/06/13 09:50:43;;;;;;;3.90;1.38;;;38.60;28.20;;;;;;4767745;29;20055;-76
2023/06/13 09:53:09;;;;;;;5.28;1.45;;;38.30;28.70;;;;;;4784853;29;20561;-73
2023/06/13 09:55:38;;;;;;;4.13;1.40;;;38.30;29.10;;;;;;4782559;29;20146;-80
2023/06/13 09:58:04;;;;;;;4.07;1.10;;;36.60;28.80;;;;;;4784247;29;20061;-76
2023/06/13 10:00:30;;;;;;;8.65;2.65;;;38.50;29.10;;;;;;4776188;29;20133;-74
2023/06/13 10:02:56;;;;;;;2.70;1.30;;;38.50;28.70;;;;;;4788724;29;20069;-75
2023/06/13 10:05:23;;;;;;;3.15;1.40;;;38.30;28.70;;;;;;4788913;29;20824;-76
2023/06/13 10:07:49;;;;;;;2.10;1.20;;;38.10;28.90;;;;;;4786761;29;20136;-78
2023/06/13 10:10:15;;;;;;;2.92;1.30;;;38.00;29.00;;;;;;4784693;29;20051;-77
2023/06/13 10:12:53;;;;;;;4.53;1.20;;;38.00;29.40;;;;;;4785166;29;20448;-76
2023/06/13 10:15:37;;;;;;;3.88;1.35;;;37.90;29.70;;;;;;4778798;29;20051;-79
2023/06/13 10:18:11;;;;;;;2.25;1.38;;;37.80;28.90;;;;;;4762142;29;20452;-78
2023/06/13 10:20:44;;;;;;;3.80;1.95;;;37.60;29.10;;;;;;4774663;29;20066;-82
2023/06/13 10:23:13;;;;;;;5.18;1.52;;;37.20;29.70;;;;;;4790562;29;20058;-73
2023/06/13 10:25:40;;;;;;;4.68;1.67;;;37.10;30.00;;;;;;4775555;29;20702;-77
2023/06/13 10:28:48;;;;;;;3.30;1.48;;;37.70;30.40;;;;;;4788326;29;20050;-76
2023/06/13 10:31:46;;;;;;;3.30;1.30;;;37.30;29.80;;;;;;4788886;29;20128;-78
2023/06/13 10:34:30;;;;;;;4.85;1.67;;;37.50;30.00;;;;;;4788107;29;20066;-75
2023/06/13 10:37:14;;;;;;;4.93;1.60;;;37.50;30.70;;;;;;4783112;29;20107;-75
2023/06/13 10:40:13;;;;;;;7.47;1.52;;;37.50;31.00;;;;;;4790512;29;20750;-73
2023/06/13 10:42:55;;;;;;;6.65;1.63;;;37.60;31.00;;;;;;4784487;29;20097;-77
2023/06/13 10:45:25;;;;;;;2.28;1.40;;;37.80;29.50;;;;;;4788181;29;20057;-77
2023/06/13 10:47:51;;;;;;;2.97;1.15;;;37.20;29.60;;;;;;4789194;29;20115;-76
2023/06/13 10:50:17;;;;;;;7.22;1.70;;;36.20;29.90;;;;;;4773104;29;20432;-81
2023/06/13 10:52:50;;;;;;;4.20;2.00;;;34.90;30.70;;;;;;4773871;29;20112;-76
2023/06/13 10:55:24;;;;;;;5.03;1.67;;;33.60;31.20;;;;;;4792071;29;20073;-76
2023/06/13 10:57:52;;;;;;;3.20;1.73;;;32.40;32.20;;;;;;4790409;29;20050;-72
2023/06/13 11:00:28;;;;;;;6.53;2.20;;;31.50;33.20;;;;;;4791076;29;20050;-74
2023/06/13 11:03:13;;;;;;;4.00;1.58;;;30.80;35.90;;;;;;4791744;29;20069;-76
2023/06/13 11:05:45;;;;;;;9.75;2.50;;;30.20;35.80;;;;;;4788928;29;20059;-76
2023/06/13 11:08:15;;;;;;;4.28;1.80;;;29.60;35.50;;;;;;4786570;29;20170;-74
2023/06/13 11:10:45;;;;;;;4.15;1.58;;;29.20;36.50;;;;;;4786637;29;20050;-76
2023/06/13 11:13:24;;;;;;;4.30;1.52;;;28.90;37.30;;;;;;4784641;29;20074;-75
2023/06/13 11:15:53;;;;;;;3.05;1.75;;;28.50;36.40;;;;;;4792136;29;20132;-75
2023/06/13 11:18:19;;;;;;;4.13;1.67;;;28.20;37.40;;;;;;4791794;29;20054;-79
2023/06/13 11:20:55;;;;;;;3.47;1.92;;;28.00;38.00;;;;;;4792018;29;20050;-76
2023/06/13 11:23:37;;;;;;;5.07;2.20;;;27.90;39.60;;;;;;4789249;29;20058;-77
2023/06/13 11:26:05;;;;;;;6.30;2.28;;;27.80;38.70;;;;;;4791544;29;20066;-79
2023/06/13 11:28:31;;;;;;;4.13;1.92;;;27.70;39.30;;;;;;4769867;29;20050;-74
2023/06/13 11:31:03;;;;;;;5.63;1.73;;;27.40;39.00;;;;;;4772178;29;20059;-75
2023/06/13 11:33:35;;;;;;;5.28;2.55;;;27.20;40.20;;;;;;4801825;29;20480;-75
2023/06/13 11:36:01;;;;;;;2.97;1.65;;;27.00;39.80;;;;;;4783860;29;20561;-74
2023/06/13 11:38:59;;;;;;;4.60;1.63;;;26.90;41.00;;;;;;4790552;29;20258;-74
2023/06/13 11:41:26;;;;;;;6.00;1.73;;;26.80;42.00;;;;;;4774687;29;20102;-77
2023/06/13 11:43:53;;;;;;;7.03;1.95;;;26.80;42.90;;;;;;4792112;29;20062;-75
2023/06/13 11:46:19;;;;;;;3.97;1.90;;;26.80;42.60;;;;;;4792078;29;20532;-73
2023/06/13 11:48:45;;;;;;;4.68;1.80;;;26.80;42.50;;;;;;4789741;29;20054;-73
2023/06/13 11:51:15;;;;;;;6.45;1.88;;;26.80;43.20;;;;;;4789730;29;20058;-76
2023/06/13 11:53:48;;;;;;;6.72;1.50;;;27.00;44.20;;;;;;4771614;29;20082;-79
2023/06/13 11:56:17;;;;;;;3.55;1.67;;;26.80;44.10;;;;;;4789427;29;20062;-77
2023/06/13 11:58:45;;;;;;;6.05;1.98;;;26.80;43.60;;;;;;4785527;29;20062;-76
2023/06/13 12:01:13;;;;;;;5.32;2.13;;;26.70;43.30;;;;;;4788323;29;20062;-74
2023/06/13 12:03:40;;;;;;;6.88;2.10;;;26.50;42.40;;;;;;4783552;29;20058;-77
2023/06/13 12:06:07;;;;;;;5.47;1.60;;;26.40;42.10;;;;;;4788390;29;20161;-75
2023/06/13 12:08:38;;;;;;;3.90;1.50;;;26.30;41.30;;;;;;4784172;29;20064;-76
2023/06/13 12:11:08;;;;;;;;;;;26.20;42.40;;;;;;4767258;29;20588;-72
2023/06/13 12:13:33;;;;;;;3.85;2.40;;;26.10;42.90;;;;;;4776017;29;19928;-76
2023/06/13 12:16:00;;;;;;;3.92;1.67;;;26.20;42.10;;;;;;4791269;29;20466;-75
2023/06/13 12:18:28;;;;;;;4.40;1.60;;;26.30;41.70;;;;;;4773912;29;20058;-75
2023/06/13 12:20:56;;;;;;;3.63;1.63;;;26.40;42.50;;;;;;4790060;29;20051;-74
2023/06/13 12:23:30;;;;;;;7.15;2.22;;;26.50;43.20;;;;;;4786015;29;20050;-77
2023/06/13 12:25:57;;;;;;;6.30;1.50;;;26.40;43.30;;;;;;4773166;29;20046;-81
2023/06/13 12:28:23;;;;;;;5.38;1.60;;;26.30;41.90;;;;;;4802770;29;20062;-78
2023/06/13 12:30:49;;;;;;;4.13;1.60;;;26.20;41.60;;;;;;4786253;29;20714;-78
2023/06/13 12:33:19;;;;;;;6.88;1.88;;;26.10;40.80;;;;;;4768605;29;20069;-81
2023/06/13 12:35:52;;;;;;;4.10;1.48;;;26.00;41.20;;;;;;4797011;29;20180;-82
2023/06/13 12:38:19;;;;;;;6.65;1.60;;;25.90;42.10;;;;;;4768911;29;20054;-80
2023/06/13 12:40:51;;;;;;;7.10;1.80;;;25.90;41.90;;;;;;4792391;29;21260;-77
2023/06/13 12:43:21;;;;;;;3.10;1.60;;;25.90;41.80;;;;;;4777832;29;20047;-79
2023/06/13 12:45:47;;;;;;;5.72;1.55;;;25.80;41.30;;;;;;4790185;29;20059;-75
2023/06/13 12:48:20;;;;;;;4.63;1.73;;;25.30;42.10;;;;;;4791052;29;20849;-74
2023/06/13 12:50:47;;;;;;;4.72;1.67;;;25.80;43.40;;;;;;4786626;29;20059;-76
2023/06/13 12:53:17;;;;;;;3.67;1.77;;;25.80;42.70;;;;;;4787819;29;20974;-78